Time;durP1;ratioP1;P1;durP2;ratioP2;P2;SDS_P1;SDS_P2;PMS_P1;PMS_P2;Temp;Humidity;BMP_temperature;BMP_pressure;BME280_temperature;BME280_humidity;BME280_pressure;Samples;Min_cycle;Max_cycle;Signal;HPM_P1;HPM_P2
2022/04/28 00:00:19;;;;;;;12.90;8.20;;;5.30;99.90;;;;;;5077013;28;20944;-89
2022/04/28 00:02:48;;;;;;;8.20;7.00;;;;;;;;;;5077268;28;20473;-90
2022/04/28 00:05:15;;;;;;;9.50;7.43;;;;;;;;;;5073681;28;20500;-90
2022/04/28 00:07:43;;;;;;;10.40;7.57;;;;;;;;;;5077518;28;20449;-90
2022/04/28 00:10:11;;;;;;;16.70;7.70;;;5.10;99.90;;;;;;5074493;28;20465;-89
2022/04/28 00:12:39;;;;;;;10.50;7.97;;;5.10;99.90;;;;;;5073484;28;20434;-91
2022/04/28 00:15:06;;;;;;;12.57;7.57;;;5.00;99.90;;;;;;5076782;28;20449;-91
2022/04/28 00:17:35;;;;;;;9.90;8.50;;;4.90;99.90;;;;;;5076686;28;20438;-89
2022/04/28 00:20:02;;;;;;;11.43;7.60;;;;;;;;;;5075828;28;20457;-89
2022/04/28 00:22:30;;;;;;;9.53;7.87;;;;;;;;;;5076751;28;20456;-90
2022/04/28 00:24:57;;;;;;;9.20;7.40;;;;;;;;;;5076962;28;20525;-89
2022/04/28 00:27:24;;;;;;;8.60;7.20;;;;;;;;;;5077054;28;20438;-90
2022/04/28 00:29:51;;;;;;;9.20;7.33;;;;;;;;;;5076487;28;20604;-91
2022/04/28 00:32:18;;;;;;;10.13;7.43;;;;;;;;;;5076926;28;20434;-90
2022/04/28 00:34:47;;;;;;;9.10;7.60;;;4.80;99.90;;;;;;5075797;28;20465;-90
2022/04/28 00:37:15;;;;;;;11.17;7.80;;;;;;;;;;5071500;28;20450;-89
2022/04/28 00:39:42;;;;;;;10.13;8.40;;;;;;;;;;5076479;28;20449;-88
2022/04/28 00:42:10;;;;;;;9.60;8.00;;;;;;;;;;5075130;28;20969;-91
2022/04/28 00:44:37;;;;;;;16.20;8.40;;;;;;;;;;5075756;28;20493;-90
2022/04/28 00:47:05;;;;;;;10.40;8.30;;;;;;;;;;5076519;28;20465;-90
2022/04/28 00:52:19;;;;;;;8.90;7.53;;;4.70;99.90;;;;;;5076185;28;20517;-92
2022/04/28 00:54:47;;;;;;;9.03;7.23;;;4.70;99.90;;;;;;5071293;28;20441;-91
2022/04/28 00:57:15;;;;;;;8.73;7.53;;;4.60;99.90;;;;;;5075916;28;20441;-90
2022/04/28 00:59:42;;;;;;;9.53;7.63;;;;;;;;;;5074086;28;20457;-90
2022/04/28 01:02:10;;;;;;;9.60;7.53;;;4.50;99.90;;;;;;5076041;28;20449;-90
2022/04/28 01:04:38;;;;;;;10.27;7.20;;;;;;;;;;5069270;28;20485;-89
2022/04/28 01:07:05;;;;;;;8.53;6.83;;;;;;;;;;5074313;28;20449;-90
2022/04/28 01:09:36;;;;;;;10.03;7.73;;;4.60;99.90;;;;;;5075526;28;20495;-89
2022/04/28 01:12:06;;;;;;;9.47;8.20;;;4.50;99.90;;;;;;5075810;28;20496;-91
2022/04/28 01:14:34;;;;;;;10.40;7.27;;;;;;;;;;5068378;28;20968;-90
2022/04/28 01:17:01;;;;;;;10.60;7.80;;;;;;;;;;5072429;28;20441;-89
2022/04/28 01:19:28;;;;;;;8.03;7.23;;;;;;;;;;5074651;28;20453;-90
2022/04/28 01:21:57;;;;;;;10.53;7.67;;;;;;;;;;5075413;28;20925;-90
2022/04/28 01:24:24;;;;;;;9.63;7.83;;;;;;;;;;5075784;28;20543;-89
2022/04/28 01:26:54;;;;;;;10.33;7.47;;;4.30;99.90;;;;;;5075436;28;20441;-92
2022/04/28 01:29:22;;;;;;;8.50;7.03;;;;;;;;;;5075731;28;20457;-90
2022/04/28 01:31:49;;;;;;;8.70;7.53;;;;;;;;;;5075690;28;20437;-90
2022/04/28 01:34:16;;;;;;;8.73;7.17;;;;;;;;;;5075598;28;20453;-90
2022/04/28 01:36:43;;;;;;;8.27;7.47;;;;;;;;;;5071895;28;20445;-88
2022/04/28 01:39:12;;;;;;;8.27;7.10;;;;;;;;;;5072661;28;20457;-89
2022/04/28 01:41:39;;;;;;;8.33;7.03;;;;;;;;;;5075350;28;20463;-90
2022/04/28 01:44:07;;;;;;;12.93;7.90;;;;;;;;;;5075004;28;20996;-90
2022/04/28 01:46:34;;;;;;;9.17;7.80;;;;;;;;;;5072378;28;20488;-91
2022/04/28 01:49:01;;;;;;;7.30;6.60;;;;;;;;;;5075166;28;20446;-90
2022/04/28 01:57:02;;;;;;;9.90;7.10;;;4.20;99.90;;;;;;5074826;28;20463;-90
2022/04/28 01:59:29;;;;;;;7.90;7.10;;;;;;;;;;5071894;28;20434;-91
2022/04/28 02:01:56;;;;;;;7.63;6.83;;;;;;;;;;5073159;28;20442;-90
2022/04/28 02:04:23;;;;;;;8.60;6.93;;;;;;;;;;5074192;28;20489;-88
2022/04/28 02:06:51;;;;;;;7.23;6.50;;;;;;;;;;5074854;28;20469;-90
2022/04/28 02:09:19;;;;;;;8.50;7.60;;;4.10;99.90;;;;;;5074971;28;20444;-90
2022/04/28 02:11:46;;;;;;;8.17;6.43;;;;;;;;;;5074564;28;20441;-91
2022/04/28 02:14:13;;;;;;;7.50;6.77;;;;;;;;;;5074558;28;20968;-91
2022/04/28 02:16:40;;;;;;;6.93;6.23;;;;;;;;;;5070169;28;20941;-90
2022/04/28 02:19:08;;;;;;;7.10;6.40;;;;;;;;;;5071795;28;20932;-90
2022/04/28 02:21:35;;;;;;;14.50;7.10;;;;;;;;;;5074096;28;20442;-90
2022/04/28 02:24:02;;;;;;;9.17;6.90;;;;;;;;;;5074477;28;20481;-90
2022/04/28 02:26:30;;;;;;;8.70;6.97;;;3.90;99.90;;;;;;5074713;28;20433;-91
2022/04/28 02:28:59;;;;;;;8.00;6.90;;;;;;;;;;5074122;28;20445;-89
2022/04/28 02:31:26;;;;;;;7.70;6.90;;;;;;;;;;5074306;28;20445;-91
2022/04/28 02:33:53;;;;;;;8.13;7.13;;;;;;;;;;5074147;28;20453;-92
2022/04/28 02:36:20;;;;;;;9.50;7.27;;;;;;;;;;5073281;28;20460;-89
2022/04/28 02:38:47;;;;;;;7.03;6.17;;;;;;;;;;5074133;28;20457;-92
2022/04/28 02:41:19;;;;;;;7.00;6.30;;;;;;;;;;5069134;28;20814;-91
2022/04/28 02:43:48;;;;;;;8.97;7.60;;;3.80;99.90;;;;;;5072273;28;20450;-91
2022/04/28 02:46:15;;;;;;;8.63;7.20;;;;;;;;;;5071291;28;20434;-90
2022/04/28 02:48:42;;;;;;;8.20;7.00;;;;;;;;;;5071383;28;20445;-89
2022/04/28 02:51:09;;;;;;;8.00;6.70;;;;;;;;;;5073038;28;20476;-89
2022/04/28 02:53:36;;;;;;;8.70;7.43;;;;;;;;;;5073744;28;20684;-89
2022/04/28 02:56:03;;;;;;;10.17;7.37;;;;;;;;;;5073838;28;20450;-90
2022/04/28 02:58:31;;;;;;;9.53;7.30;;;;;;;;;;5070857;28;20452;-92
2022/04/28 03:00:59;;;;;;;11.13;6.80;;;3.80;99.90;;;;;;5074108;28;20449;-89
2022/04/28 03:03:26;;;;;;;7.27;6.50;;;;;;;;;;5074141;28;20962;-89
2022/04/28 03:11:26;;;;;;;9.07;6.80;;;;;;;;;;5073736;28;20525;-89
2022/04/28 03:13:54;;;;;;;8.03;7.00;;;;;;;;;;5070139;28;20450;-91
2022/04/28 03:16:22;;;;;;;8.10;6.50;;;3.70;99.90;;;;;;5073763;28;20453;-88
2022/04/28 03:18:50;;;;;;;10.10;6.60;;;3.70;99.90;;;;;;5069427;28;20940;-91
2022/04/28 03:21:17;;;;;;;9.37;7.10;;;;;;;;;;5070223;28;20442;-90
2022/04/28 03:23:44;;;;;;;8.20;6.67;;;;;;;;;;5070892;28;20430;-90
2022/04/28 03:26:12;;;;;;;8.97;6.83;;;;;;;;;;5073674;28;20493;-91
2022/04/28 03:28:39;;;;;;;8.97;7.00;;;;;;;;;;5073886;28;20511;-91
2022/04/28 03:31:07;;;;;;;9.73;6.80;;;3.50;99.90;;;;;;5073594;28;20445;-90
2022/04/28 03:33:36;;;;;;;7.43;6.60;;;;;;;;;;5068412;28;20533;-89
2022/04/28 03:36:50;;;;;;;8.60;6.70;;;;;;;;;;5069898;28;20441;-89
2022/04/28 03:38:50;;;;;;;8.67;7.50;;;;;;;;;;5072975;28;20940;-91
2022/04/28 03:41:17;;;;;;;7.73;6.73;;;;;;;;;;5070430;28;20801;-88
2022/04/28 03:43:45;;;;;;;9.17;7.50;;;;;;;;;;5073367;28;20460;-90
2022/04/28 03:46:12;;;;;;;9.67;7.37;;;;;;;;;;5073173;28;20485;-92
2022/04/28 03:48:40;;;;;;;10.90;8.27;;;3.40;99.90;;;;;;5070509;28;20490;-90
2022/04/28 03:51:07;;;;;;;8.17;7.10;;;;;;;;;;5070306;28;20482;-91
2022/04/28 03:53:34;;;;;;;9.57;7.63;;;;;;;;;;5073277;28;20984;-91
2022/04/28 03:56:01;;;;;;;9.20;7.83;;;;;;;;;;5073282;28;20950;-90
2022/04/28 03:58:28;;;;;;;9.17;7.90;;;;;;;;;;5073046;28;20799;-91
2022/04/28 04:00:55;;;;;;;32.70;16.10;;;;;;;;;;5073201;28;20429;-91
2022/04/28 04:03:23;;;;;;;34.67;17.60;;;;;;;;;;5073084;28;20464;-90
2022/04/28 04:05:51;;;;;;;21.63;13.20;;;;;;;;;;5072567;28;20505;-91
2022/04/28 04:08:18;;;;;;;32.33;18.87;;;;;;;;;;5073156;28;20923;-90
2022/04/28 04:10:45;;;;;;;32.27;18.37;;;;;;;;;;5069020;28;20450;-89
2022/04/28 04:13:12;;;;;;;29.93;16.93;;;;;;;;;;5073305;28;20445;-90
2022/04/28 04:15:40;;;;;;;21.67;13.53;;;;;;;;;;5070176;28;20491;-92
2022/04/28 04:18:08;;;;;;;16.43;12.13;;;;;;;;;;5076238;28;20461;-91
2022/04/28 04:20:35;;;;;;;16.77;11.40;;;;;;;;;;5076574;28;20468;-91
2022/04/28 04:23:05;;;;;;;16.20;10.97;;;;;;;;;;5076797;28;20940;-91
2022/04/28 04:25:32;;;;;;;12.53;9.27;;;;;;;;;;5076821;28;21012;-89
2022/04/28 04:28:00;;;;;;;12.57;9.80;;;;;;;;;;5077062;28;20438;-88
2022/04/28 04:33:12;;;;;;;12.80;9.40;;;;;;;;;;5076772;28;20437;-90
2022/04/28 04:35:39;;;;;;;10.80;7.67;;;;;;;;;;5073154;28;20458;-90
2022/04/28 04:38:07;;;;;;;13.37;9.50;;;3.50;99.90;;;;;;5076403;28;20449;-90
2022/04/28 04:40:34;;;;;;;13.87;10.37;;;;;;;;;;5073199;28;20461;-92
2022/04/28 04:43:02;;;;;;;15.87;10.73;;;;;;;;;;5075811;28;20446;-87
2022/04/28 04:45:29;;;;;;;16.70;10.70;;;;;;;;;;5075736;28;20489;-90
2022/04/28 04:47:56;;;;;;;14.93;11.70;;;;;;;;;;5075918;28;20449;-88
2022/04/28 04:50:24;;;;;;;16.43;11.23;;;;;;;;;;5075118;28;20999;-90
2022/04/28 04:52:51;;;;;;;12.40;10.00;;;;;;;;;;5075971;28;20457;-90
2022/04/28 04:55:20;;;;;;;12.70;9.27;;;;;;;;;;5076285;28;20798;-89
2022/04/28 04:57:47;;;;;;;14.77;10.47;;;;;;;;;;5076112;28;20791;-88
2022/04/28 05:00:14;;;;;;;13.27;9.83;;;;;;;;;;5071197;28;20441;-89
2022/04/28 05:02:41;;;;;;;13.67;9.30;;;;;;;;;;5075903;28;20450;-88
2022/04/28 05:05:09;;;;;;;14.33;10.00;;;;;;;;;;5074945;28;20493;-90
2022/04/28 05:07:36;;;;;;;11.77;9.10;;;;;;;;;;5076474;28;20450;-89
2022/04/28 05:10:03;;;;;;;13.53;10.37;;;;;;;;;;5072274;28;20450;-90
2022/04/28 05:12:32;;;;;;;11.40;8.87;;;;;;;;;;5076036;28;20468;-88
2022/04/28 05:14:59;;;;;;;14.07;10.50;;;;;;;;;;5075263;28;20821;-87
2022/04/28 05:17:26;;;;;;;12.80;9.60;;;;;;;;;;5075311;28;20507;-89
2022/04/28 05:19:56;;;;;;;14.07;11.20;;;;;;;;;;5074016;28;20859;-87
2022/04/28 05:22:23;;;;;;;19.43;11.20;;;;;;;;;;5075606;28;20457;-88
2022/04/28 05:24:50;;;;;;;21.60;10.20;;;;;;;;;;5075216;28;20952;-91
2022/04/28 05:27:18;;;;;;;13.87;10.10;;;;;;;;;;5076146;28;20461;-90
2022/04/28 05:29:46;;;;;;;14.40;10.40;;;5.70;99.90;;;;;;5075167;28;20438;-91
2022/04/28 05:32:13;;;;;;;17.47;12.30;;;;;;;;;;5075431;28;20953;-91
2022/04/28 05:34:40;;;;;;;16.67;12.77;;;;;;;;;;5071785;28;20499;-89
2022/04/28 05:37:07;;;;;;;15.07;12.00;;;7.20;99.90;;;;;;5076899;28;20449;-90
2022/04/28 05:39:35;;;;;;;12.30;10.10;;;;;;;;;;5075203;28;20469;-92
2022/04/28 05:42:02;;;;;;;10.60;9.10;;;;;;;;;;5075795;28;20426;-92
2022/04/28 05:47:16;;;;;;;11.27;8.53;;;9.10;99.90;;;;;;5075379;28;20436;-92
2022/04/28 05:49:43;;;;;;;10.87;9.50;;;;;;;;;;5073805;28;20466;-90
2022/04/28 05:52:11;;;;;;;14.20;8.87;;;;;;;;;;5076262;28;20445;-88
2022/04/28 05:54:40;;;;;;;10.53;9.50;;;;;;;;;;5071949;28;20458;-91
2022/04/28 05:57:08;;;;;;;10.37;8.83;;;;;;;;;;5074449;28;20453;-90
2022/04/28 05:59:35;;;;;;;10.37;9.30;;;;;;;;;;5074925;28;20442;-91
2022/04/28 06:02:02;;;;;;;10.33;9.30;;;;;;;;;;5075007;28;20446;-90
2022/04/28 06:04:30;;;;;;;11.53;9.30;;;11.50;99.90;;;;;;5074983;28;20453;-91
2022/04/28 06:06:57;;;;;;;10.40;9.30;;;;;;;;;;5074597;28;20496;-90
2022/04/28 06:09:24;;;;;;;10.90;9.00;;;;;;;;;;5072546;28;20438;-92
2022/04/28 06:11:52;;;;;;;9.60;8.23;;;;;;;;;;5074898;28;20458;-89
2022/04/28 06:14:19;;;;;;;10.03;9.03;;;;;;;;;;5074526;28;20495;-90
2022/04/28 06:16:46;;;;;;;9.23;8.17;;;;;;;;;;5074420;28;20453;-91
2022/04/28 06:19:14;;;;;;;9.20;7.80;;;;;;;;;;5074891;28;20450;-92
2022/04/28 06:21:42;;;;;;;13.17;8.60;;;;;;;;;;5073539;28;20844;-93
2022/04/28 06:24:09;;;;;;;9.70;8.57;;;;;;;;;;5074741;28;20454;-88
2022/04/28 06:26:36;;;;;;;8.57;7.20;;;;;;;;;;5073895;28;20484;-90
2022/04/28 06:29:03;;;;;;;8.90;7.97;;;;;;;;;;5073882;28;20442;-87
2022/04/28 06:31:30;;;;;;;7.80;7.00;;;;;;;;;;5074408;28;20454;-89
2022/04/28 06:33:57;;;;;;;7.53;6.83;;;;;;;;;;5074456;28;20454;-88
2022/04/28 06:36:25;;;;;;;7.83;7.10;;;;;;;;;;5073283;28;20446;-89
2022/04/28 06:38:53;;;;;;;8.20;6.80;;;14.40;99.90;;;;;;5073729;28;20469;-88
2022/04/28 06:41:20;;;;;;;8.07;7.30;;;;;;;;;;5073329;28;20496;-89
2022/04/28 06:43:47;;;;;;;11.80;7.50;;;;;;;;;;5074064;28;20500;-88
2022/04/28 06:46:15;;;;;;;6.80;6.10;;;;;;;;;;5073367;28;20495;-90
2022/04/28 06:48:42;;;;;;;6.97;6.37;;;;;;;;;;5073700;28;20453;-88
2022/04/28 06:51:10;;;;;;;7.73;7.03;;;;;;;;;;5070510;28;20473;-91
2022/04/28 06:53:39;;;;;;;7.70;6.20;;;;;;;;;;5073411;28;20453;-90
2022/04/28 06:56:08;;;;;;;7.57;6.10;;;;;;;;;;5073838;28;20452;-89
2022/04/28 06:58:37;;;;;;;6.53;5.60;;;;;;;;;;5071468;28;20462;-91
2022/04/28 07:01:05;;;;;;;9.17;5.30;;;;;;;;;;5070752;28;21029;-93
2022/04/28 07:03:32;;;;;;;7.43;5.87;;;;;;;;;;5073850;28;20442;-89
2022/04/28 07:05:59;;;;;;;8.90;5.73;;;;;;;;;;5070038;28;20973;-91
2022/04/28 07:08:26;;;;;;;5.77;5.27;;;;;;;;;;5073806;28;20805;-93
2022/04/28 07:10:53;;;;;;;5.60;5.10;;;;;;;;;;5074219;28;20442;-93
2022/04/28 07:13:21;;;;;;;5.43;4.93;;;15.30;98.40;;;;;;5072223;28;20453;-89
2022/04/28 07:15:48;;;;;;;6.47;5.87;;;;;;;;;;5073654;28;20469;-92
2022/04/28 07:18:16;;;;;;;5.80;5.23;;;;;;;;;;5073694;28;20949;-88
2022/04/28 07:20:44;;;;;;;5.10;4.60;;;;;;;;;;5072293;28;20449;-91
2022/04/28 07:23:12;;;;;;;4.70;4.30;;;;;;;;;;5071475;28;20453;-90
2022/04/28 07:25:39;;;;;;;12.70;4.77;;;;;;;;;;5073229;28;20485;-90
2022/04/28 07:28:06;;;;;;;7.10;4.30;;;;;;;;;;5073466;28;20495;-90
2022/04/28 07:30:34;;;;;;;6.20;4.83;;;15.00;97.70;;;;;;5075370;28;20442;-91
2022/04/28 07:33:01;;;;;;;5.10;4.60;;;;;;;;;;5073984;28;20437;-91
2022/04/28 07:35:29;;;;;;;6.57;4.43;;;;;;;;;;5072733;28;20454;-92
2022/04/28 07:37:56;;;;;;;5.23;4.70;;;;;;;;;;5074066;28;20474;-93
2022/04/28 07:40:23;;;;;;;5.67;4.80;;;;;;;;;;5069499;28;20869;-92
2022/04/28 07:42:50;;;;;;;5.90;4.80;;;;;;;;;;5070695;28;20438;-92
2022/04/28 07:45:17;;;;;;;5.53;4.73;;;;;;;;;;5073549;28;20453;-92
2022/04/28 07:47:46;;;;;;;4.80;4.30;;;16.60;93.60;;;;;;5070561;28;20449;-92
2022/04/28 07:50:13;;;;;;;5.63;5.10;;;;;;;;;;5072530;28;20470;-91
2022/04/28 07:52:40;;;;;;;5.40;4.90;;;;;;;;;;5076258;28;20434;-93
2022/04/28 07:55:11;;;;;;;5.40;4.90;;;;;;;;;;5074301;28;20473;-91
2022/04/28 07:57:38;;;;;;;5.07;4.60;;;;;;;;;;5077707;28;20450;-92
2022/04/28 08:00:06;;;;;;;5.70;5.20;;;;;;;;;;5077359;28;20845;-89
2022/04/28 08:02:33;;;;;;;5.90;4.80;;;;;;;;;;5076714;28;20442;-90
2022/04/28 08:05:01;;;;;;;6.10;5.50;;;16.80;92.30;;;;;;5076793;28;20453;-91
2022/04/28 08:07:28;;;;;;;5.60;5.10;;;;;;;;;;5078314;28;20500;-90
2022/04/28 08:09:55;;;;;;;6.83;5.53;;;;;;;;;;5076555;28;20554;-90
2022/04/28 08:12:23;;;;;;;5.53;5.03;;;;;;;;;;5075055;28;20847;-92
2022/04/28 08:14:50;;;;;;;6.13;5.10;;;;;;;;;;5075561;28;20450;-89
2022/04/28 08:17:17;;;;;;;5.03;4.53;;;;;;;;;;5077082;28;20457;-89
2022/04/28 08:19:44;;;;;;;6.10;4.87;;;;;;;;;;5077114;28;20453;-91
2022/04/28 08:22:12;;;;;;;5.30;4.50;;;17.10;88.50;;;;;;5076985;28;20449;-91
2022/04/28 08:24:39;;;;;;;4.97;4.47;;;;;;;;;;5078053;28;20456;-89
2022/04/28 08:27:06;;;;;;;8.00;4.93;;;;;;;;;;5078198;28;20520;-91
2022/04/28 08:29:33;;;;;;;4.47;3.93;;;;;;;;;;5081500;28;20456;-87
2022/04/28 08:32:00;;;;;;;5.37;4.87;;;;;;;;;;5075867;28;20452;-90
2022/04/28 08:34:28;;;;;;;6.13;5.00;;;;;;;;;;5084341;28;20936;-90
2022/04/28 08:36:55;;;;;;;6.13;4.63;;;;;;;;;;5074364;28;20449;-91
2022/04/28 08:39:23;;;;;;;4.93;4.53;;;18.30;81.60;;;;;;5076305;28;20464;-90
2022/04/28 08:41:50;;;;;;;6.33;4.90;;;;;;;;;;5075920;28;20461;-90
2022/04/28 08:44:19;;;;;;;4.90;4.13;;;17.90;83.50;;;;;;5075732;28;20453;-89
2022/04/28 08:46:52;;;;;;;5.00;4.37;;;18.20;81.20;;;;;;5070271;28;20493;-89
2022/04/28 08:49:22;;;;;;;5.53;4.53;;;18.10;78.90;;;;;;5072346;28;20979;-89
2022/04/28 08:51:51;;;;;;;5.03;4.07;;;18.50;78.80;;;;;;5075644;28;20477;-89
2022/04/28 08:54:18;;;;;;;4.77;4.37;;;18.70;99.70;;;;;;5075842;28;20942;-88
2022/04/28 08:56:46;;;;;;;3.40;3.10;;;18.20;94.40;;;;;;5067988;28;20497;-91
2022/04/28 08:59:14;;;;;;;6.00;4.37;;;;;;;;;;5077575;28;20540;-91
2022/04/28 09:01:41;;;;;;;4.27;3.87;;;;;;;;;;5076007;28;20453;-89
2022/04/28 09:04:10;;;;;;;4.80;4.30;;;;;;;;;;5068914;28;20483;-90
2022/04/28 09:06:37;;;;;;;10.10;4.70;;;;;;;;;;5074380;28;20496;-89
2022/04/28 09:09:06;;;;;;;4.77;4.27;;;18.30;74.80;;;;;;5072576;28;20476;-91
2022/04/28 09:11:37;;;;;;;6.63;4.20;;;18.70;74.70;;;;;;5077042;28;20449;-90
2022/04/28 09:14:10;;;;;;;4.90;4.10;;;19.00;72.20;;;;;;5073496;28;20507;-94
2022/04/28 09:16:40;;;;;;;4.80;4.40;;;18.80;73.20;;;;;;5077020;28;20453;-91
2022/04/28 09:19:07;;;;;;;4.30;3.80;;;;;;;;;;5076133;28;20465;-92
2022/04/28 09:21:35;;;;;;;5.07;3.73;;;19.40;91.90;;;;;;5076757;28;20446;-92
2022/04/28 09:24:02;;;;;;;3.87;3.57;;;19.60;72.00;;;;;;5072941;28;20812;-92
2022/04/28 09:26:32;;;;;;;4.30;3.90;;;19.40;68.00;;;;;;5072349;28;20493;-90
2022/04/28 09:29:02;;;;;;;4.63;4.23;;;19.10;68.40;;;;;;5072380;28;20453;-91
2022/04/28 09:31:31;;;;;;;4.50;3.90;;;19.90;96.00;;;;;;5075399;28;20450;-91
2022/04/28 09:34:08;;;;;;;4.77;4.37;;;19.40;68.30;;;;;;5071286;28;20453;-91
2022/04/28 09:36:35;;;;;;;4.90;4.00;;;;;;;;;;5074553;28;20472;-90
2022/04/28 09:39:03;;;;;;;4.30;3.83;;;;;;;;;;5072350;28;20438;-93
2022/04/28 09:44:16;;;;;;;4.17;3.77;;;19.10;82.80;;;;;;5075689;28;20854;-91
2022/04/28 09:46:45;;;;;;;4.67;4.00;;;17.60;60.30;;;;;;5075142;28;20521;-90
2022/04/28 09:49:13;;;;;;;3.27;2.97;;;20.20;60.30;;;;;;5075276;28;20457;-93
2022/04/28 09:51:40;;;;;;;4.07;3.70;;;;;;;;;;5073977;28;20474;-90
2022/04/28 09:54:09;;;;;;;3.23;2.93;;;19.60;78.80;;;;;;5075278;28;20453;-90
2022/04/28 09:56:37;;;;;;;7.80;3.70;;;20.40;82.90;;;;;;5075069;28;20511;-93
2022/04/28 09:59:06;;;;;;;4.33;3.00;;;19.90;88.50;;;;;;5072508;28;20438;-91
2022/04/28 10:01:35;;;;;;;5.57;3.70;;;19.30;80.10;;;;;;5072353;28;20448;-94
2022/04/28 10:04:03;;;;;;;3.80;3.43;;;20.20;61.20;;;;;;5076760;28;20450;-93
2022/04/28 10:06:33;;;;;;;5.30;4.00;;;;;;;;;;5075591;28;20488;-91
2022/04/28 10:09:03;;;;;;;4.33;3.93;;;20.20;90.60;;;;;;5077030;28;20438;-94
2022/04/28 10:11:30;;;;;;;6.97;3.83;;;;;;;;;;5072449;28;20446;-87
2022/04/28 10:14:00;;;;;;;4.57;4.17;;;20.50;61.00;;;;;;5075111;28;20453;-93
2022/04/28 10:16:27;;;;;;;5.30;3.60;;;20.60;90.00;;;;;;5025288;28;20454;-92
2022/04/28 10:19:00;;;;;;;4.00;3.70;;;20.00;79.90;;;;;;5070297;28;20450;-90
2022/04/28 10:21:34;;;;;;;4.00;3.60;;;20.30;80.00;;;;;;5064303;28;20447;-91
2022/04/28 10:32:53;;;;;;;6.50;3.53;;;21.10;81.70;;;;;;5074805;28;20809;-88
2022/04/28 10:35:34;;;;;;;5.57;4.53;;;20.50;57.90;;;;;;5073081;28;20945;-90
2022/04/28 10:38:20;;;;;;;5.00;3.47;;;20.60;88.80;;;;;;5074616;28;20445;-92
2022/04/28 10:40:57;;;;;;;4.70;3.80;;;20.90;57.60;;;;;;5073503;28;20956;-90
2022/04/28 10:43:26;;;;;;;5.93;4.10;;;21.10;58.80;;;;;;5075947;28;20548;-90
2022/04/28 10:45:54;;;;;;;4.13;3.70;;;21.10;57.40;;;;;;5073594;28;20470;-89
2022/04/28 10:48:28;;;;;;;4.40;3.53;;;21.00;58.00;;;;;;5074305;28;20520;-89
2022/04/28 10:51:15;;;;;;;4.57;3.50;;;20.00;88.80;;;;;;5073637;28;20517;-93
2022/04/28 10:54:03;;;;;;;3.60;3.30;;;20.00;76.80;;;;;;5032492;28;20454;-90
2022/04/28 10:56:32;;;;;;;4.97;3.77;;;21.30;58.10;;;;;;5029695;28;20460;-91
2022/04/28 10:59:01;;;;;;;4.20;3.90;;;20.50;84.80;;;;;;5030139;28;20451;-89
2022/04/28 11:01:31;;;;;;;4.10;3.70;;;20.60;57.90;;;;;;5036352;28;20443;-90
2022/04/28 11:03:59;;;;;;;4.53;4.10;;;19.60;63.80;;;;;;5031723;28;21021;-89
2022/04/28 11:06:31;;;;;;;5.30;3.90;;;20.80;88.70;;;;;;5030132;28;20444;-92
2022/04/28 11:09:01;;;;;;;4.17;3.77;;;20.80;87.60;;;;;;5033521;28;20447;-91
2022/04/28 11:11:42;;;;;;;5.90;4.37;;;20.90;83.60;;;;;;5043351;28;20809;-89
2022/04/28 11:14:09;;;;;;;4.17;3.77;;;20.90;76.10;;;;;;5075126;28;20454;-88
2022/04/28 11:16:37;;;;;;;4.43;4.00;;;;;;;;;;5074318;28;20458;-89
2022/04/28 11:19:05;;;;;;;3.33;3.03;;;;;;;;;;5044842;28;20460;-88
2022/04/28 11:21:32;;;;;;;5.17;3.87;;;;;;;;;;5025530;28;20451;-89
2022/04/28 11:23:59;;;;;;;4.00;3.70;;;;;;;;;;5036560;28;20471;-90
2022/04/28 11:26:27;;;;;;;3.37;2.83;;;;;;;;;;5031738;28;20448;-90
2022/04/28 11:28:56;;;;;;;3.57;3.27;;;20.00;63.90;;;;;;5038227;28;20458;-90
2022/04/28 11:31:23;;;;;;;3.50;3.20;;;;;;;;;;5040946;28;20454;-89
2022/04/28 11:33:53;;;;;;;5.90;3.90;;;20.30;55.90;;;;;;5040901;28;20451;-92
2022/04/28 11:36:28;;;;;;;4.03;3.67;;;20.10;57.80;;;;;;5046367;28;20439;-94
2022/04/28 11:38:57;;;;;;;4.67;4.23;;;19.70;59.50;;;;;;5048662;28;20458;-93
2022/04/28 11:41:32;;;;;;;4.73;3.60;;;20.20;59.70;;;;;;5054525;28;20435;-89
2022/04/28 11:44:07;;;;;;;5.20;3.43;;;20.20;58.10;;;;;;5047684;28;20505;-94
2022/04/28 11:46:35;;;;;;;3.30;3.00;;;19.60;92.60;;;;;;5043258;28;20501;-93
2022/04/28 11:49:02;;;;;;;3.13;2.87;;;;;;;;;;5042897;28;20458;-93
2022/04/28 11:51:37;;;;;;;4.40;3.57;;;;;;;;;;5045245;28;20470;-95
2022/04/28 11:54:05;;;;;;;5.90;3.80;;;;;;;;;;5041052;28;20461;-93
2022/04/28 11:56:33;;;;;;;3.93;3.63;;;;;;;;;;5038614;28;20451;-87
2022/04/28 11:59:00;;;;;;;4.67;3.13;;;;;;;;;;5037384;28;20502;-94
2022/04/28 12:01:32;;;;;;;3.13;2.83;;;20.90;58.70;;;;;;5040147;28;20451;-91
2022/04/28 12:04:00;;;;;;;4.27;3.40;;;20.40;87.90;;;;;;5041614;28;20447;-92
2022/04/28 12:06:28;;;;;;;4.53;3.93;;;;;;;;;;5042158;28;20439;-89
2022/04/28 12:08:56;;;;;;;7.07;3.50;;;20.30;59.30;;;;;;5046684;28;20497;-89
2022/04/28 12:14:26;;;;;;;4.50;3.27;;;;;;;;;;5037639;28;20485;-92
2022/04/28 12:19:48;;;;;;;3.73;3.43;;;20.60;58.20;;;;;;5040964;28;20423;-90
2022/04/28 12:22:24;;;;;;;3.77;3.37;;;20.70;57.30;;;;;;5038253;28;20451;-95
2022/04/28 12:24:51;;;;;;;3.57;3.27;;;;;;;;;;5038213;28;20458;-92
2022/04/28 12:27:19;;;;;;;3.97;3.63;;;;;;;;;;5041185;28;20497;-89
2022/04/28 12:29:52;;;;;;;4.13;3.73;;;20.80;55.90;;;;;;5036060;28;20470;-90
2022/04/28 12:32:22;;;;;;;4.20;3.50;;;20.60;56.80;;;;;;5037443;28;20486;-91
2022/04/28 12:34:58;;;;;;;4.00;3.60;;;;;;;;;;5036473;28;20443;-90
2022/04/28 12:37:27;;;;;;;5.97;3.60;;;20.80;56.90;;;;;;5027661;28;20440;-93
2022/04/28 12:40:00;;;;;;;3.57;3.27;;;20.60;58.10;;;;;;5024583;28;20574;-95
2022/04/28 12:42:30;;;;;;;6.23;3.73;;;;;;;;;;5040056;28;20444;-93
2022/04/28 12:45:00;;;;;;;4.13;3.73;;;;;;;;;;5039807;28;20459;-93
2022/04/28 12:47:37;;;;;;;3.10;2.90;;;;;;;;;;5039811;28;20845;-94
2022/04/28 12:50:21;;;;;;;3.53;3.23;;;20.30;58.10;;;;;;5039073;28;20493;-94
2022/04/28 12:52:48;;;;;;;3.20;2.90;;;;;;;;;;5038997;28;20466;-94
2022/04/28 12:55:17;;;;;;;3.87;3.33;;;;;;;;;;5042202;28;20459;-93
2022/04/28 12:57:47;;;;;;;4.10;3.30;;;;;;;;;;5047228;28;20448;-94
2022/04/28 13:00:18;;;;;;;4.20;3.50;;;;;;;;;;5042148;28;20439;-95
2022/04/28 13:02:51;;;;;;;3.57;3.27;;;21.10;55.50;;;;;;5043848;28;20456;-95
2022/04/28 13:05:22;;;;;;;3.20;2.80;;;21.00;57.50;;;;;;5045066;28;20436;-92
2022/04/28 13:07:49;;;;;;;4.13;3.43;;;;;;;;;;5037444;28;20493;-91
2022/04/28 13:10:17;;;;;;;3.93;3.10;;;;;;;;;;5037354;28;20448;-95
2022/04/28 13:12:44;;;;;;;6.50;3.43;;;;;;;;;;5037530;28;20494;-92
2022/04/28 13:15:13;;;;;;;4.13;3.73;;;;;;;;;;5037694;28;20459;-94
2022/04/28 13:17:40;;;;;;;4.40;3.87;;;;;;;;;;5037378;28;20455;-91
2022/04/28 13:20:09;;;;;;;6.63;3.30;;;;;;;;;;5027750;28;20853;-92
2022/04/28 13:22:36;;;;;;;4.30;3.90;;;;;;;;;;5039101;28;20478;-89
2022/04/28 13:25:04;;;;;;;5.80;2.80;;;20.80;56.30;;;;;;5038796;28;20451;-92
2022/04/28 13:27:31;;;;;;;4.73;3.23;;;;;;;;;;5036654;28;20479;-89
2022/04/28 13:29:59;;;;;;;5.10;2.90;;;;;;;;;;5040977;28;20432;-92
2022/04/28 13:32:29;;;;;;;5.43;3.73;;;20.30;57.20;;;;;;5034098;28;20451;-92
2022/04/28 13:34:56;;;;;;;3.70;3.37;;;;;;;;;;5036393;28;20459;-90
2022/04/28 13:37:24;;;;;;;3.67;3.20;;;20.10;58.10;;;;;;5034649;28;20466;-89
2022/04/28 13:39:52;;;;;;;3.60;3.30;;;;;;;;;;5035877;28;20455;-91
2022/04/28 13:42:19;;;;;;;7.00;3.43;;;;;;;;;;5033085;28;20447;-92
2022/04/28 13:44:46;;;;;;;3.30;3.00;;;;;;;;;;5033472;28;20834;-90
2022/04/28 13:47:13;;;;;;;3.10;2.80;;;;;;;;;;5038319;28;20485;-90
2022/04/28 13:49:41;;;;;;;3.60;3.30;;;;;;;;;;5034898;28;21182;-94
2022/04/28 13:52:09;;;;;;;3.60;3.30;;;20.80;57.00;;;;;;5031800;28;20939;-90
2022/04/28 13:54:37;;;;;;;3.33;3.03;;;20.80;56.60;;;;;;5033067;28;20506;-92
2022/04/28 13:57:05;;;;;;;3.50;3.20;;;;;;;;;;5035626;28;20474;-90
2022/04/28 13:59:33;;;;;;;4.50;4.10;;;21.00;81.20;;;;;;5037233;28;20935;-92
2022/04/28 14:02:00;;;;;;;3.50;2.80;;;;;;;;;;5034776;28;20448;-90
2022/04/28 14:04:27;;;;;;;3.37;3.07;;;;;;;;;;5032084;28;20455;-90
2022/04/28 14:06:55;;;;;;;3.30;3.00;;;;;;;;;;5035655;28;20478;-92
2022/04/28 14:09:23;;;;;;;3.40;2.90;;;;;;;;;;5032392;28;20990;-92
2022/04/28 14:11:55;;;;;;;5.40;3.37;;;;;;;;;;5038183;28;20448;-94
2022/04/28 14:14:22;;;;;;;6.37;4.47;;;;;;;;;;5039052;28;20463;-92
2022/04/28 14:16:49;;;;;;;7.83;4.23;;;;;;;;;;5037662;28;20927;-90
2022/04/28 14:19:17;;;;;;;3.97;3.67;;;;;;;;;;5038762;28;20438;-92
2022/04/28 14:21:45;;;;;;;4.80;3.40;;;;;;;;;;5038283;28;20452;-93
2022/04/28 14:24:12;;;;;;;4.50;3.37;;;;;;;;;;5034105;28;20516;-96
2022/04/28 14:26:39;;;;;;;3.80;3.03;;;;;;;;;;5036793;28;20832;-94
2022/04/28 14:29:08;;;;;;;3.90;3.13;;;20.50;55.10;;;;;;5034950;28;20491;-93
2022/04/28 14:31:36;;;;;;;3.93;3.50;;;20.40;55.20;;;;;;5033702;28;20454;-94
2022/04/28 14:34:04;;;;;;;3.40;3.10;;;;;;;;;;5036527;28;20463;-91
2022/04/28 14:36:31;;;;;;;5.30;3.90;;;;;;;;;;5035834;28;20860;-90
2022/04/28 14:38:58;;;;;;;3.73;3.40;;;;;;;;;;5038539;28;20463;-91
2022/04/28 14:41:26;;;;;;;3.87;3.57;;;;;;;;;;5037505;28;20455;-91
2022/04/28 14:43:53;;;;;;;4.40;3.33;;;;;;;;;;5038366;28;20447;-96